createdAt,value
2022-09-10T00:03:23.670Z,1.58
2022-09-10T00:08:26.401Z,1.65
2022-09-10T00:13:30.401Z,2.70
2022-09-10T00:18:34.565Z,1.80
2022-09-10T00:23:38.115Z,1.60
2022-09-10T00:28:42.585Z,1.60
2022-09-10T00:33:45.743Z,1.60
2022-09-10T00:38:49.011Z,1.35
2022-09-10T00:43:56.296Z,1.30
2022-09-10T00:49:02.463Z,1.52
2022-09-10T00:54:06.321Z,1.60
2022-09-10T00:59:12.081Z,1.92
2022-09-10T01:04:15.524Z,1.40
2022-09-10T01:09:18.957Z,2.22
2022-09-10T01:14:47.350Z,1.40
2022-09-10T01:20:15.450Z,1.40
2022-09-10T01:25:28.355Z,1.35
2022-09-10T01:30:37.989Z,1.10
2022-09-10T01:35:43.679Z,1.42
2022-09-10T01:40:47.251Z,1.30
2022-09-10T01:46:05.848Z,1.20
2022-09-10T01:51:16.327Z,1.35
2022-09-10T01:56:29.469Z,1.67
2022-09-10T02:01:38.923Z,1.50
2022-09-10T02:06:44.913Z,1.42
2022-09-10T02:11:49.055Z,1.80
2022-09-10T02:16:58.187Z,1.70
2022-09-10T02:22:00.993Z,1.50
2022-09-10T02:27:03.733Z,1.23
2022-09-10T02:32:08.694Z,1.50
2022-09-10T02:37:11.344Z,2.00
2022-09-10T02:42:18.085Z,1.50
2022-09-10T02:47:22.060Z,1.55
2022-09-10T02:52:25.215Z,1.48
2022-09-10T02:57:28.405Z,1.40
2022-09-10T03:02:32.367Z,1.48
2022-09-10T03:07:35.247Z,1.80
2022-09-10T03:12:40.794Z,1.75
2022-09-10T03:17:44.737Z,1.60
2022-09-10T03:22:47.601Z,1.63
2022-09-10T03:27:50.271Z,1.67
2022-09-10T03:32:54.698Z,1.58
2022-09-10T03:37:57.396Z,2.00
2022-09-10T03:43:00.936Z,1.65
2022-09-10T03:48:05.294Z,1.33
2022-09-10T03:53:08.248Z,1.60
2022-09-10T03:58:10.936Z,1.77
2022-09-10T04:03:15.283Z,1.45
2022-09-10T04:08:17.953Z,1.60
2022-09-10T04:13:20.639Z,1.58
2022-09-10T04:18:26.454Z,1.70
2022-09-10T04:23:29.746Z,1.90
2022-09-10T04:28:32.385Z,1.80
2022-09-10T04:33:36.830Z,1.70
2022-09-10T04:38:41.499Z,1.83
2022-09-10T04:43:44.485Z,2.00
2022-09-10T04:48:48.489Z,2.25
2022-09-10T04:53:51.101Z,1.70
2022-09-10T04:58:53.756Z,2.00
2022-09-10T05:03:57.813Z,1.77
2022-09-10T05:09:00.430Z,1.90
2022-09-10T05:14:03.143Z,1.98
2022-09-10T05:19:07.150Z,1.90
2022-09-10T05:24:10.137Z,1.80
2022-09-10T05:29:13.988Z,1.58
2022-09-10T05:34:17.918Z,1.90
2022-09-10T05:39:20.559Z,1.52
2022-09-10T05:44:23.161Z,1.75
2022-09-10T05:49:27.274Z,1.73
2022-09-10T05:54:29.890Z,1.80
2022-09-10T05:59:34.410Z,1.60
2022-09-10T06:04:38.347Z,1.67
2022-09-10T06:09:40.977Z,2.17
2022-09-10T06:14:43.605Z,1.45
2022-09-10T06:19:47.792Z,1.42
2022-09-10T06:24:51.774Z,1.25
2022-09-10T06:29:56.315Z,1.50
2022-09-10T06:35:00.299Z,1.23
2022-09-10T06:40:03.475Z,1.30
2022-09-10T06:45:07.091Z,1.00
2022-09-10T06:50:11.474Z,0.95
2022-09-10T06:55:14.248Z,0.98
2022-09-10T07:00:17.540Z,1.10
2022-09-10T07:05:21.512Z,1.00
2022-09-10T07:10:24.197Z,0.82
2022-09-10T07:15:27.891Z,0.77
2022-09-10T07:20:32.150Z,0.60
2022-09-10T07:25:34.976Z,0.77
2022-09-10T07:30:37.657Z,0.65
2022-09-10T07:35:41.843Z,0.90
2022-09-10T07:40:44.775Z,0.60
2022-09-10T07:45:47.429Z,0.52
2022-09-10T07:50:51.469Z,0.57
2022-09-10T07:55:59.733Z,0.70
2022-09-10T08:01:03.695Z,0.63
2022-09-10T08:06:09.209Z,0.60
2022-09-10T08:11:13.858Z,0.52
2022-09-10T08:16:18.900Z,0.68
2022-09-10T08:21:22.885Z,0.82
2022-09-10T08:26:27.350Z,0.60
2022-09-10T08:31:30.005Z,0.60
2022-09-10T08:36:33.995Z,0.65
2022-09-10T08:41:47.904Z,0.50
2022-09-10T08:46:55.971Z,0.60
2022-09-10T08:52:03.641Z,0.70
2022-09-10T08:57:14.530Z,0.63
2022-09-10T09:02:47.055Z,0.55
2022-09-10T09:07:49.638Z,0.60
2022-09-10T09:13:13.421Z,0.77
2022-09-10T09:18:22.940Z,0.68
2022-09-10T09:23:36.034Z,0.88
2022-09-10T09:28:45.232Z,0.93
2022-09-10T09:33:49.964Z,0.65
2022-09-10T09:38:55.406Z,0.70
2022-09-10T09:44:04.154Z,0.75
2022-09-10T09:49:15.739Z,0.63
2022-09-10T09:59:49.360Z,0.80
2022-09-10T10:05:00.715Z,0.60
2022-09-10T10:10:08.282Z,0.55
2022-09-10T10:15:37.189Z,0.60
2022-09-10T10:20:41.347Z,0.50
2022-09-10T10:25:48.648Z,0.75
2022-09-10T10:30:57.427Z,0.70
2022-09-10T10:36:08.118Z,0.60
2022-09-10T10:41:58.032Z,0.88
2022-09-10T10:47:24.078Z,0.60
2022-09-10T10:52:35.581Z,0.60
2022-09-10T10:58:03.514Z,0.70
2022-09-10T11:03:14.416Z,0.82
2022-09-10T11:08:21.128Z,0.60
2022-09-10T11:13:31.495Z,0.68
2022-09-10T11:18:42.647Z,0.90
2022-09-10T11:23:51.276Z,0.60
2022-09-10T11:29:05.243Z,0.80
2022-09-10T11:34:16.336Z,0.38
2022-09-10T11:39:26.667Z,0.52
2022-09-10T11:44:41.930Z,0.60
2022-09-10T11:49:51.004Z,0.70
2022-09-10T11:54:54.902Z,1.20
2022-09-10T12:00:09.904Z,0.70
2022-09-10T12:05:22.545Z,0.52
2022-09-10T12:10:34.424Z,0.50
2022-09-10T12:15:39.069Z,0.50
2022-09-10T12:20:49.580Z,0.70
2022-09-10T12:25:58.790Z,0.68
2022-09-10T12:31:04.254Z,0.82
2022-09-10T12:36:07.114Z,0.70
2022-09-10T12:41:12.247Z,0.65
2022-09-10T12:46:19.675Z,0.85
2022-09-10T12:51:32.870Z,0.65
2022-09-10T12:56:57.776Z,0.60
2022-09-10T13:02:02.017Z,0.80
2022-09-10T13:07:19.587Z,0.70
2022-09-10T13:12:24.308Z,0.50
2022-09-10T13:18:23.559Z,0.50
2022-09-10T13:23:49.277Z,0.55
2022-09-10T13:29:05.706Z,0.50
2022-09-10T13:34:29.977Z,0.80
2022-09-10T13:39:53.826Z,0.65
2022-09-10T13:45:10.510Z,0.60
2022-09-10T13:50:17.737Z,0.70
2022-09-10T13:55:22.776Z,0.70
2022-09-10T14:00:28.223Z,0.70
2022-09-10T14:05:36.170Z,0.55
2022-09-10T14:10:52.968Z,0.50
2022-09-10T14:15:59.379Z,0.50
2022-09-10T14:21:03.608Z,0.80
2022-09-10T14:26:11.828Z,0.47
2022-09-10T14:31:21.954Z,0.50
2022-09-10T14:36:34.519Z,0.60
2022-09-10T14:41:37.552Z,0.50
2022-09-10T14:46:50.113Z,0.80
2022-09-10T14:51:54.310Z,0.60
2022-09-10T14:56:58.449Z,0.80
2022-09-10T15:02:02.154Z,0.90
2022-09-10T15:07:06.201Z,0.80
2022-09-10T15:12:13.466Z,0.80
2022-09-10T15:17:17.515Z,0.80
2022-09-10T15:22:24.752Z,0.63
2022-09-10T15:27:27.435Z,0.60
2022-09-10T15:32:30.720Z,0.80
2022-09-10T15:37:34.659Z,0.77
2022-09-10T15:42:37.300Z,1.10
2022-09-10T15:47:41.873Z,0.50
2022-09-10T15:52:45.867Z,0.50
2022-09-10T15:57:50.612Z,1.45
2022-09-10T16:02:54.182Z,0.60
2022-09-10T16:07:58.236Z,0.85
2022-09-10T16:13:00.876Z,0.80
2022-09-10T16:18:03.534Z,0.60
2022-09-10T16:23:07.460Z,0.68
2022-09-10T16:28:10.063Z,0.73
2022-09-10T16:33:12.659Z,0.68
2022-09-10T16:38:16.615Z,0.70
2022-09-10T16:43:20.130Z,0.55
2022-09-10T16:48:22.870Z,0.60
2022-09-10T16:53:26.769Z,0.70
2022-09-10T16:58:34.040Z,1.55
2022-09-10T17:03:41.604Z,1.00
2022-09-10T17:08:46.481Z,1.02
2022-09-10T17:13:50.828Z,1.48
2022-09-10T17:18:57.932Z,0.70
2022-09-10T17:24:03.585Z,1.00
2022-09-10T17:29:07.880Z,1.20
2022-09-10T17:34:13.144Z,1.20
2022-09-10T17:39:18.026Z,1.50
2022-09-10T17:44:21.741Z,1.48
2022-09-10T17:49:24.599Z,1.50
2022-09-10T17:54:28.552Z,1.88
2022-09-10T17:59:31.174Z,2.10
2022-09-10T18:04:33.798Z,2.40
2022-09-10T18:09:37.988Z,1.83
2022-09-10T18:14:41.948Z,1.80
2022-09-10T18:19:44.586Z,1.90
2022-09-10T18:37:21.522Z,2.25
2022-09-10T18:42:25.762Z,2.33
2022-09-10T18:47:44.227Z,3.28
2022-09-10T19:06:47.290Z,4.20
2022-09-10T19:11:53.127Z,4.40
2022-09-10T19:16:57.210Z,4.82
2022-09-10T19:22:06.209Z,4.97
2022-09-10T19:27:10.302Z,3.60
2022-09-10T19:32:15.602Z,2.75
2022-09-10T19:37:20.092Z,2.42
2022-09-10T19:42:26.458Z,3.30
2022-09-10T19:47:34.389Z,4.15
2022-09-10T19:52:40.211Z,3.78
2022-09-10T19:57:49.410Z,3.33
2022-09-10T20:02:54.372Z,3.65
2022-09-10T20:07:58.637Z,4.15
2022-09-10T20:13:02.736Z,3.80
2022-09-10T20:18:06.076Z,3.40
2022-09-10T20:23:08.715Z,2.90
2022-09-10T20:28:14.274Z,2.83
2022-09-10T20:33:17.090Z,2.78
2022-09-10T20:38:22.072Z,2.70
2022-09-10T20:43:26.810Z,2.80
2022-09-10T20:48:31.295Z,2.72
2022-09-10T20:59:15.695Z,2.90
2022-09-10T21:04:19.181Z,2.75
2022-09-10T21:09:21.846Z,3.40
2022-09-10T21:14:26.318Z,4.35
2022-09-10T21:19:31.711Z,3.53
2022-09-10T21:24:34.405Z,3.00
2022-09-10T21:29:38.437Z,3.40
2022-09-10T21:34:41.196Z,3.10
2022-09-10T21:39:44.121Z,3.13
2022-09-10T21:44:48.149Z,2.90
2022-09-10T21:49:50.911Z,3.28
2022-09-10T21:54:53.606Z,2.90
2022-09-10T21:59:57.577Z,3.20
2022-09-10T22:05:03.446Z,3.70
2022-09-10T22:10:07.450Z,3.33
2022-09-10T22:15:11.906Z,3.05
2022-09-10T22:20:14.584Z,3.00
2022-09-10T22:25:17.595Z,3.75
2022-09-10T22:30:22.177Z,5.13
2022-09-10T22:35:26.332Z,3.25
2022-09-10T22:40:29.465Z,3.47
2022-09-10T22:45:33.433Z,3.67
2022-09-10T22:50:36.087Z,3.70
2022-09-10T22:55:38.787Z,3.47
2022-09-10T23:00:42.755Z,3.88
2022-09-10T23:05:45.428Z,3.47
2022-09-10T23:10:48.063Z,3.30
2022-09-10T23:15:52.579Z,3.45
2022-09-10T23:20:55.202Z,3.55
2022-09-10T23:25:57.870Z,2.90
2022-09-10T23:31:10.372Z,3.10
2022-09-10T23:36:14.480Z,3.58
2022-09-10T23:41:17.219Z,2.67
2022-09-10T23:46:21.492Z,3.60
2022-09-10T23:51:24.256Z,3.40
2022-09-10T23:56:28.413Z,3.38
